createdAt,value
2017-11-18T00:02:11.717Z,2.67
2017-11-18T00:04:40.840Z,2.83
2017-11-18T00:07:09.187Z,2.13
2017-11-18T00:09:38.350Z,2.00
2017-11-18T00:12:06.715Z,1.80
2017-11-18T00:14:35.058Z,1.63
2017-11-18T00:17:04.169Z,2.40
2017-11-18T00:19:32.531Z,2.47
2017-11-18T00:22:00.887Z,2.83
2017-11-18T00:24:29.257Z,2.93
2017-11-18T00:26:57.626Z,2.73
2017-11-18T00:29:25.971Z,2.67
2017-11-18T00:31:54.315Z,2.47
2017-11-18T00:34:23.473Z,3.33
2017-11-18T00:36:51.999Z,2.80
2017-11-18T00:39:21.107Z,3.63
2017-11-18T00:41:49.470Z,2.80
2017-11-18T00:44:17.854Z,2.97
2017-11-18T00:46:46.194Z,3.40
2017-11-18T00:49:14.553Z,3.00
2017-11-18T00:51:43.011Z,3.03
2017-11-18T00:54:11.488Z,2.93
2017-11-18T00:56:39.864Z,3.47
2017-11-18T00:59:08.283Z,3.30
2017-11-18T01:01:36.830Z,3.13
2017-11-18T01:04:05.190Z,4.17
2017-11-18T01:06:34.031Z,3.20
2017-11-18T01:09:02.389Z,3.90
2017-11-18T01:11:30.758Z,3.50
2017-11-18T01:13:59.129Z,2.80
2017-11-18T01:16:27.479Z,3.70
2017-11-18T01:18:56.612Z,2.77
2017-11-18T01:21:24.970Z,3.10
2017-11-18T01:23:53.515Z,2.60
2017-11-18T01:26:21.927Z,2.90
2017-11-18T01:28:50.270Z,3.23
2017-11-18T01:31:18.660Z,3.37
2017-11-18T01:33:47.199Z,3.10
2017-11-18T01:36:15.753Z,2.13
2017-11-18T01:38:44.127Z,3.50
2017-11-18T01:41:12.494Z,3.10
2017-11-18T01:43:40.826Z,2.73
2017-11-18T01:46:08.847Z,2.93
2017-11-18T01:48:37.218Z,2.70
2017-11-18T01:51:06.193Z,3.37
2017-11-18T01:53:35.309Z,3.17
2017-11-18T01:56:03.679Z,2.50
2017-11-18T01:58:32.783Z,3.23
2017-11-18T02:01:01.125Z,2.40
2017-11-18T02:03:29.485Z,2.60
2017-11-18T02:05:57.838Z,3.17
2017-11-18T02:08:26.184Z,3.87
2017-11-18T02:10:54.545Z,2.83
2017-11-18T02:13:23.663Z,3.17
2017-11-18T02:15:51.999Z,2.40
2017-11-18T02:18:20.524Z,4.10
2017-11-18T02:20:48.553Z,2.23
2017-11-18T02:23:16.563Z,2.70
2017-11-18T02:25:44.590Z,2.33
2017-11-18T02:28:12.612Z,2.33
2017-11-18T02:30:40.289Z,2.67
2017-11-18T02:33:08.008Z,3.87
2017-11-18T02:35:36.221Z,2.27
2017-11-18T02:38:03.986Z,2.90
2017-11-18T02:40:32.191Z,2.20
2017-11-18T02:43:00.203Z,1.90
2017-11-18T02:45:28.228Z,2.80
2017-11-18T02:47:56.123Z,3.03
2017-11-18T02:50:24.586Z,3.87
2017-11-18T02:52:52.609Z,4.30
2017-11-18T02:55:20.634Z,2.70
2017-11-18T02:57:48.885Z,2.97
2017-11-18T03:00:16.385Z,3.60
2017-11-18T03:02:44.945Z,3.40
2017-11-18T03:05:14.059Z,3.63
2017-11-18T03:07:43.181Z,2.20
2017-11-18T03:10:11.550Z,4.07
2017-11-18T03:12:39.898Z,3.40
2017-11-18T03:15:09.003Z,3.43
2017-11-18T03:17:38.138Z,5.50
2017-11-18T03:20:06.514Z,3.97
2017-11-18T03:22:34.859Z,3.03
2017-11-18T03:25:03.419Z,3.83
2017-11-18T03:27:31.762Z,3.67
2017-11-18T03:30:00.112Z,3.67
2017-11-18T03:32:28.161Z,4.70
2017-11-18T03:34:56.696Z,5.23
2017-11-18T03:37:24.697Z,3.90
2017-11-18T03:39:53.085Z,4.83
2017-11-18T03:42:21.466Z,3.57
2017-11-18T03:44:50.241Z,5.30
2017-11-18T03:47:18.598Z,5.50
2017-11-18T03:49:46.613Z,4.37
2017-11-18T03:52:15.716Z,5.40
2017-11-18T03:54:43.462Z,4.70
2017-11-18T03:57:11.502Z,5.03
2017-11-18T03:59:39.522Z,5.60
2017-11-18T04:02:07.875Z,4.70
2017-11-18T04:04:37.728Z,5.57
2017-11-18T04:07:07.594Z,5.43
2017-11-18T04:09:36.977Z,4.90
2017-11-18T04:12:05.318Z,5.13
2017-11-18T04:14:33.688Z,5.10
2017-11-18T04:17:02.042Z,4.50
2017-11-18T04:19:31.145Z,5.40
2017-11-18T04:22:01.409Z,5.67
2017-11-18T04:24:29.750Z,4.53
2017-11-18T04:26:58.100Z,5.73
2017-11-18T04:29:29.150Z,5.80
2017-11-18T04:31:58.262Z,6.33
2017-11-18T04:34:26.650Z,5.20
2017-11-18T04:36:55.054Z,4.60
2017-11-18T04:39:23.399Z,5.63
2017-11-18T04:41:51.734Z,4.43
2017-11-18T04:44:20.108Z,4.83
2017-11-18T04:46:48.455Z,4.40
2017-11-18T04:49:16.809Z,4.97
2017-11-18T04:51:45.252Z,5.10
2017-11-18T04:54:13.607Z,4.93
2017-11-18T04:56:41.654Z,5.00
2017-11-18T04:59:11.052Z,6.00
2017-11-18T05:01:39.416Z,6.63
2017-11-18T05:04:08.702Z,4.73
2017-11-18T05:06:37.846Z,5.63
2017-11-18T05:09:05.896Z,5.83
2017-11-18T05:11:34.252Z,5.17
2017-11-18T05:14:05.679Z,5.40
2017-11-18T05:16:35.193Z,4.70
2017-11-18T05:19:04.332Z,4.60
2017-11-18T05:21:32.806Z,6.17
2017-11-18T05:24:01.238Z,3.20
2017-11-18T05:26:28.946Z,4.70
2017-11-18T05:28:57.290Z,4.37
2017-11-18T05:31:26.426Z,3.03
2017-11-18T05:33:54.458Z,4.10
2017-11-18T05:36:23.234Z,3.60
2017-11-18T05:38:52.346Z,3.43
2017-11-18T05:41:21.479Z,4.17
2017-11-18T05:43:49.826Z,4.87
2017-11-18T05:46:18.170Z,6.00
2017-11-18T05:48:46.534Z,5.67
2017-11-18T05:51:14.894Z,4.77
2017-11-18T05:53:43.429Z,4.53
2017-11-18T05:56:12.771Z,5.80
2017-11-18T05:58:41.131Z,4.80
2017-11-18T06:01:08.928Z,6.00
2017-11-18T06:03:37.413Z,3.60
2017-11-18T06:06:05.746Z,3.83
2017-11-18T06:08:34.098Z,5.30
2017-11-18T06:11:03.235Z,4.27
2017-11-18T06:13:31.577Z,4.47
2017-11-18T06:16:00.714Z,3.00
2017-11-18T06:18:30.215Z,5.23
2017-11-18T06:20:59.578Z,3.60
2017-11-18T06:23:29.447Z,5.10
2017-11-18T06:25:57.810Z,5.00
2017-11-18T06:28:26.149Z,2.87
2017-11-18T06:30:55.282Z,4.87
2017-11-18T06:33:23.634Z,5.13
2017-11-18T06:35:51.966Z,4.00
2017-11-18T06:38:20.359Z,4.40
2017-11-18T06:40:49.662Z,4.73
2017-11-18T06:43:18.029Z,6.70
2017-11-18T06:45:46.395Z,4.53
2017-11-18T06:48:14.735Z,4.23
2017-11-18T06:50:43.092Z,5.40
2017-11-18T06:53:11.465Z,4.63
2017-11-18T06:55:40.571Z,5.47
2017-11-18T06:58:08.919Z,4.57
2017-11-18T07:00:36.958Z,3.13
2017-11-18T07:03:05.300Z,5.37
2017-11-18T07:05:33.650Z,3.90
2017-11-18T07:08:02.787Z,2.93
2017-11-18T07:10:31.144Z,3.30
2017-11-18T07:13:00.283Z,4.80
2017-11-18T07:15:28.646Z,5.23
2017-11-18T07:17:56.988Z,3.77
2017-11-18T07:20:26.117Z,3.30
2017-11-18T07:22:54.480Z,2.00
2017-11-18T07:25:22.883Z,5.57
2017-11-18T07:27:51.307Z,2.40
2017-11-18T07:30:20.432Z,3.37
2017-11-18T07:32:48.814Z,3.83
2017-11-18T07:35:17.162Z,2.63
2017-11-18T07:37:45.555Z,2.30
2017-11-18T07:40:14.658Z,2.80
2017-11-18T07:42:43.075Z,5.53
2017-11-18T07:45:11.446Z,6.20
2017-11-18T07:47:39.801Z,4.20
2017-11-18T07:50:07.509Z,5.90
2017-11-18T07:52:35.883Z,4.83
2017-11-18T07:55:04.096Z,2.40
2017-11-18T07:57:32.490Z,4.67
2017-11-18T08:00:01.060Z,5.13
2017-11-18T08:02:29.419Z,6.17
2017-11-18T08:04:59.471Z,1.93
2017-11-18T08:07:28.541Z,5.07
2017-11-18T08:09:57.646Z,4.07
2017-11-18T08:12:26.029Z,5.20
2017-11-18T08:14:54.399Z,5.70
2017-11-18T08:17:22.787Z,5.67
2017-11-18T08:19:50.811Z,5.57
2017-11-18T08:22:20.773Z,4.20
2017-11-18T08:24:49.121Z,3.80
2017-11-18T08:27:18.229Z,5.63
2017-11-18T08:29:47.368Z,5.03
2017-11-18T08:32:15.804Z,3.63
2017-11-18T08:34:44.990Z,5.83
2017-11-18T08:37:14.135Z,4.33
2017-11-18T08:39:42.512Z,3.60
2017-11-18T08:42:10.862Z,4.50
2017-11-18T08:44:39.239Z,3.10
2017-11-18T08:47:08.543Z,4.60
2017-11-18T08:49:36.916Z,2.90
2017-11-18T08:52:06.486Z,4.10
2017-11-18T08:54:34.856Z,4.70
2017-11-18T08:57:06.698Z,5.43
2017-11-18T08:59:34.809Z,3.80
2017-11-18T09:02:05.482Z,3.53
2017-11-18T09:04:33.873Z,4.63
2017-11-18T09:07:09.135Z,5.57
2017-11-18T09:09:39.422Z,3.93
2017-11-18T09:12:10.694Z,4.50
2017-11-18T09:14:40.087Z,6.77
2017-11-18T09:17:16.295Z,4.70
2017-11-18T09:19:45.709Z,4.10
2017-11-18T09:22:15.093Z,5.03
2017-11-18T09:24:44.461Z,5.80
2017-11-18T09:27:13.855Z,6.93
2017-11-18T09:29:43.419Z,4.63
2017-11-18T09:32:12.774Z,7.40
2017-11-18T09:34:42.174Z,5.43
2017-11-18T09:37:11.551Z,4.60
2017-11-18T09:39:40.952Z,6.43
2017-11-18T09:42:09.330Z,3.27
2017-11-18T09:44:37.810Z,6.40
2017-11-18T09:47:06.213Z,4.47
2017-11-18T09:49:34.582Z,8.03
2017-11-18T09:52:02.964Z,7.07
2017-11-18T09:54:31.522Z,5.93
2017-11-18T09:56:59.919Z,3.70
2017-11-18T09:59:28.316Z,6.00
2017-11-18T10:01:56.696Z,6.40
2017-11-18T10:04:24.918Z,7.23
2017-11-18T10:06:52.608Z,5.20
2017-11-18T10:09:20.963Z,7.77
2017-11-18T10:11:49.341Z,7.10
2017-11-18T10:14:17.798Z,6.27
2017-11-18T10:16:47.171Z,5.60
2017-11-18T10:19:16.706Z,5.10
2017-11-18T10:21:45.822Z,4.17
2017-11-18T10:24:14.173Z,4.77
2017-11-18T10:26:43.307Z,6.63
2017-11-18T10:29:11.660Z,5.10
2017-11-18T10:31:40.777Z,8.43
2017-11-18T10:34:09.166Z,10.33
2017-11-18T10:36:37.507Z,7.00
2017-11-18T10:39:06.646Z,5.90
2017-11-18T10:41:36.354Z,5.70
2017-11-18T10:44:04.382Z,6.33
2017-11-18T10:46:33.490Z,6.60
2017-11-18T10:49:01.533Z,6.50
2017-11-18T10:51:29.554Z,8.37
2017-11-18T10:53:57.898Z,7.10
2017-11-18T10:56:26.721Z,7.73
2017-11-18T10:58:55.093Z,8.40
2017-11-18T11:01:24.553Z,8.43
2017-11-18T11:03:53.698Z,7.47
2017-11-18T11:06:23.216Z,6.77
2017-11-18T11:08:52.243Z,6.63
2017-11-18T11:11:20.626Z,7.47
2017-11-18T11:13:49.476Z,10.13
2017-11-18T11:16:17.312Z,7.07
2017-11-18T11:18:45.494Z,5.20
2017-11-18T11:21:14.046Z,6.30
2017-11-18T11:23:43.214Z,7.23
2017-11-18T11:26:11.585Z,3.37
2017-11-18T11:28:40.025Z,5.10
2017-11-18T11:31:08.395Z,7.40
2017-11-18T11:33:36.762Z,7.00
2017-11-18T11:36:04.814Z,6.40
2017-11-18T11:38:33.922Z,6.33
2017-11-18T11:41:03.058Z,7.97
2017-11-18T11:43:31.078Z,5.17
2017-11-18T11:45:59.673Z,7.13
2017-11-18T11:48:28.817Z,5.13
2017-11-18T11:50:57.158Z,7.33
2017-11-18T11:53:25.515Z,5.57
2017-11-18T11:55:55.111Z,4.70
2017-11-18T11:58:23.126Z,6.80
2017-11-18T12:00:51.514Z,5.90
2017-11-18T12:03:19.551Z,5.97
2017-11-18T12:05:47.267Z,5.83
2017-11-18T12:08:15.615Z,7.60
2017-11-18T12:10:43.671Z,6.27
2017-11-18T12:13:12.108Z,5.73
2017-11-18T12:15:41.252Z,6.30
2017-11-18T12:18:10.567Z,4.00
2017-11-18T12:20:38.962Z,6.90
2017-11-18T12:23:06.885Z,6.97
2017-11-18T12:25:35.015Z,6.80
2017-11-18T12:28:04.505Z,6.90
2017-11-18T12:30:33.809Z,6.53
2017-11-18T12:33:02.004Z,7.83
2017-11-18T12:35:30.161Z,7.30
2017-11-18T12:37:58.526Z,9.73
2017-11-18T12:40:26.577Z,7.03
2017-11-18T12:42:55.376Z,6.80
2017-11-18T12:45:23.746Z,5.07
2017-11-18T12:47:51.790Z,5.13
2017-11-18T12:50:20.163Z,7.77
2017-11-18T12:52:48.521Z,8.47
2017-11-18T12:55:16.584Z,6.33
2017-11-18T12:57:44.945Z,6.67
2017-11-18T13:00:13.800Z,5.73
2017-11-18T13:02:42.163Z,3.60
2017-11-18T13:05:10.528Z,4.27
2017-11-18T13:07:40.008Z,6.93
2017-11-18T13:10:09.413Z,7.03
2017-11-18T13:12:38.793Z,4.67
2017-11-18T13:15:07.142Z,7.90
2017-11-18T13:17:35.322Z,5.13
2017-11-18T13:20:03.834Z,7.50
2017-11-18T13:22:32.191Z,6.63
2017-11-18T13:25:00.596Z,6.90
2017-11-18T13:27:28.962Z,7.10
2017-11-18T13:29:57.332Z,5.20
2017-11-18T13:32:25.911Z,7.30
2017-11-18T13:34:53.950Z,5.90
2017-11-18T13:37:21.967Z,6.57
2017-11-18T13:39:50.349Z,5.93
2017-11-18T13:42:18.720Z,6.80
2017-11-18T13:44:47.096Z,7.30
2017-11-18T13:47:15.472Z,7.03
2017-11-18T13:49:43.906Z,6.03
2017-11-18T13:52:12.252Z,5.73
2017-11-18T13:54:40.832Z,8.30
2017-11-18T13:57:09.271Z,5.07
2017-11-18T13:59:38.043Z,4.33
2017-11-18T14:02:05.786Z,6.70
2017-11-18T14:04:35.004Z,4.10
2017-11-18T14:07:03.504Z,5.60
2017-11-18T14:09:31.907Z,8.40
2017-11-18T14:12:00.274Z,6.07
2017-11-18T14:14:28.617Z,6.37
2017-11-18T14:16:56.749Z,3.67
2017-11-18T14:19:25.619Z,5.63
2017-11-18T14:21:54.079Z,4.33
2017-11-18T14:24:22.141Z,7.40
2017-11-18T14:26:50.476Z,7.17
2017-11-18T14:29:18.827Z,4.67
2017-11-18T14:31:47.190Z,7.00
2017-11-18T14:34:15.350Z,5.30
2017-11-18T14:36:43.520Z,7.43
2017-11-18T14:39:11.569Z,5.80
2017-11-18T14:41:39.249Z,8.00
2017-11-18T14:44:07.270Z,6.77
2017-11-18T14:46:36.442Z,7.50
2017-11-18T14:49:05.652Z,5.20
2017-11-18T14:51:34.816Z,2.90
2017-11-18T14:54:04.208Z,6.30
2017-11-18T14:56:33.922Z,6.00
2017-11-18T14:59:05.441Z,6.80
2017-11-18T15:01:34.291Z,2.70
2017-11-18T15:04:03.148Z,3.00
2017-11-18T15:06:32.002Z,4.97
2017-11-18T15:09:00.589Z,5.70
2017-11-18T15:11:29.180Z,4.53
2017-11-18T15:13:57.811Z,3.77
2017-11-18T15:16:41.166Z,3.87
2017-11-18T15:19:15.321Z,6.07
2017-11-18T15:21:49.590Z,3.87
2017-11-18T15:24:22.783Z,4.90
2017-11-18T15:26:56.195Z,6.70
2017-11-18T15:29:24.627Z,6.50
2017-11-18T15:31:57.827Z,5.70
2017-11-18T15:34:31.812Z,3.57
2017-11-18T15:36:59.312Z,5.47
2017-11-18T15:39:26.825Z,5.30
2017-11-18T15:41:54.342Z,5.80
2017-11-18T15:44:22.791Z,5.27
2017-11-18T15:47:03.406Z,6.27
2017-11-18T15:49:37.309Z,6.40
2017-11-18T15:52:06.549Z,3.33
2017-11-18T15:54:39.872Z,4.80
2017-11-18T15:57:12.778Z,2.60
2017-11-18T15:59:41.042Z,3.13
2017-11-18T16:05:09.043Z,4.80
2017-11-18T16:07:53.028Z,5.20
2017-11-18T16:10:20.718Z,4.40
2017-11-18T16:12:48.726Z,6.30
2017-11-18T16:15:17.412Z,6.60
2017-11-18T16:17:46.203Z,5.80
2017-11-18T16:20:13.943Z,3.70
2017-11-18T16:22:41.663Z,4.47
2017-11-18T16:25:09.350Z,4.60
2017-11-18T16:27:37.511Z,5.80
2017-11-18T16:30:05.571Z,4.87
2017-11-18T16:32:33.607Z,5.87
2017-11-18T16:35:01.314Z,6.03
2017-11-18T16:37:30.617Z,5.17
2017-11-18T16:39:59.015Z,3.87
2017-11-18T16:42:26.707Z,5.00
2017-11-18T16:44:54.451Z,4.80
2017-11-18T16:47:22.151Z,5.27
2017-11-18T16:49:49.901Z,4.20
2017-11-18T16:52:17.938Z,3.33
2017-11-18T16:54:45.627Z,3.23
2017-11-18T16:57:14.075Z,3.80
2017-11-18T16:59:43.290Z,4.63
2017-11-18T17:02:11.758Z,2.97
2017-11-18T17:04:39.441Z,4.03
2017-11-18T17:07:07.907Z,3.73
2017-11-18T17:09:35.595Z,3.70
2017-11-18T17:12:03.348Z,2.80
2017-11-18T17:14:31.061Z,4.80
2017-11-18T17:16:58.951Z,4.00
2017-11-18T17:19:26.636Z,4.30
2017-11-18T17:21:55.460Z,5.20
2017-11-18T17:24:23.159Z,4.00
2017-11-18T17:26:50.855Z,5.30
2017-11-18T17:29:19.321Z,5.77
2017-11-18T17:31:47.214Z,4.90
2017-11-18T17:34:14.919Z,5.70
2017-11-18T17:36:42.639Z,5.63
2017-11-18T17:39:10.344Z,3.83
2017-11-18T17:41:38.084Z,4.80
2017-11-18T17:44:05.804Z,5.20
2017-11-18T17:46:34.940Z,4.53
2017-11-18T17:49:02.852Z,5.90
2017-11-18T17:51:30.580Z,5.57
2017-11-18T17:53:58.287Z,7.10
2017-11-18T17:56:26.734Z,4.80
2017-11-18T17:58:55.215Z,6.70
2017-11-18T18:01:22.947Z,5.47
2017-11-18T18:03:51.141Z,6.10
2017-11-18T18:06:18.860Z,5.77
2017-11-18T18:08:47.320Z,2.77
2017-11-18T18:11:15.012Z,3.53
2017-11-18T18:13:43.500Z,4.30
2017-11-18T18:16:11.515Z,5.03
2017-11-18T18:18:39.864Z,2.37
2017-11-18T18:21:08.236Z,7.47
2017-11-18T18:23:36.595Z,4.57
2017-11-18T18:26:05.626Z,5.50
2017-11-18T18:28:35.126Z,2.60
2017-11-18T18:31:04.484Z,3.27
2017-11-18T18:33:33.885Z,7.83
2017-11-18T18:36:03.351Z,3.90
2017-11-18T18:38:32.780Z,3.63
2017-11-18T18:41:01.121Z,5.33
2017-11-18T18:43:29.483Z,5.53
2017-11-18T18:45:57.832Z,5.03
2017-11-18T18:48:27.414Z,3.83
2017-11-18T18:50:56.490Z,6.03
2017-11-18T18:53:25.527Z,3.53
2017-11-18T18:55:54.909Z,4.77
2017-11-18T18:58:24.299Z,5.27
2017-11-18T19:00:53.688Z,4.30
2017-11-18T19:03:23.092Z,10.67
2017-11-18T19:05:52.491Z,4.23
2017-11-18T19:08:21.627Z,4.43
2017-11-18T19:10:50.765Z,5.00
2017-11-18T19:13:20.188Z,4.37
2017-11-18T19:15:49.590Z,5.67
2017-11-18T19:18:18.968Z,6.20
2017-11-18T19:20:48.410Z,3.93
2017-11-18T19:23:17.845Z,6.33
2017-11-18T19:25:47.392Z,4.77
2017-11-18T19:28:16.780Z,3.90
2017-11-18T19:30:47.589Z,4.43
2017-11-18T19:33:16.699Z,3.47
2017-11-18T19:35:45.199Z,4.70
2017-11-18T19:38:13.607Z,2.67
2017-11-18T19:40:41.987Z,5.13
2017-11-18T19:43:11.514Z,2.37
2017-11-18T19:45:40.481Z,5.43
2017-11-18T19:48:09.284Z,5.97
2017-11-18T19:50:39.047Z,3.20
2017-11-18T19:53:08.500Z,5.23
2017-11-18T19:55:37.870Z,5.07
2017-11-18T19:58:08.643Z,2.90
2017-11-18T20:00:37.694Z,4.67
2017-11-18T20:03:07.066Z,4.30
2017-11-18T20:05:36.731Z,5.77
2017-11-18T20:08:05.775Z,2.60
2017-11-18T20:10:35.537Z,4.80
2017-11-18T20:13:04.955Z,3.80
2017-11-18T20:15:33.986Z,4.73
2017-11-18T20:18:02.830Z,5.40
2017-11-18T20:20:31.963Z,5.67
2017-11-18T20:23:01.541Z,6.83
2017-11-18T20:25:31.131Z,6.43
2017-11-18T20:28:00.736Z,9.10
2017-11-18T20:30:30.282Z,6.03
2017-11-18T20:33:00.109Z,6.03
2017-11-18T20:35:29.922Z,5.13
2017-11-18T20:37:59.321Z,4.43
2017-11-18T20:40:28.420Z,6.60
2017-11-18T20:42:57.781Z,6.40
2017-11-18T20:45:27.323Z,7.43
2017-11-18T20:47:56.786Z,7.07
2017-11-18T20:50:26.180Z,8.50
2017-11-18T20:52:55.582Z,7.33
2017-11-18T20:55:25.076Z,8.07
2017-11-18T20:57:54.510Z,5.60
2017-11-18T21:00:23.902Z,6.30
2017-11-18T21:02:53.281Z,7.93
2017-11-18T21:05:22.666Z,10.20
2017-11-18T21:07:52.068Z,7.67
2017-11-18T21:10:21.443Z,5.70
2017-11-18T21:12:50.838Z,7.20
2017-11-18T21:15:19.910Z,8.43
2017-11-18T21:17:49.273Z,5.10
2017-11-18T21:20:18.639Z,7.07
2017-11-18T21:22:47.007Z,6.53
2017-11-18T21:25:15.593Z,6.20
2017-11-18T21:27:44.003Z,6.67
2017-11-18T21:30:12.059Z,6.60
2017-11-18T21:32:40.438Z,8.33
2017-11-18T21:35:08.791Z,5.50
2017-11-18T21:37:37.189Z,7.07
2017-11-18T21:40:05.219Z,7.53
2017-11-18T21:42:34.355Z,6.00
2017-11-18T21:45:02.737Z,7.90
2017-11-18T21:47:31.212Z,8.17
2017-11-18T21:49:59.564Z,6.70
2017-11-18T21:52:27.593Z,7.77
2017-11-18T21:54:55.954Z,7.20
2017-11-18T21:57:24.330Z,8.00
2017-11-18T21:59:52.897Z,9.57
2017-11-18T22:02:21.244Z,6.90
2017-11-18T22:04:50.372Z,9.37
2017-11-18T22:07:19.776Z,8.70
2017-11-18T22:09:49.139Z,9.30
2017-11-18T22:12:18.591Z,9.30
2017-11-18T22:14:48.202Z,8.40
2017-11-18T22:17:17.598Z,6.67
2017-11-18T22:19:46.630Z,9.23
2017-11-18T22:22:16.025Z,9.20
2017-11-18T22:24:45.401Z,8.63
2017-11-18T22:27:14.790Z,8.00
2017-11-18T22:29:44.494Z,10.07
2017-11-18T22:32:13.859Z,7.67
2017-11-18T22:34:43.232Z,6.03
2017-11-18T22:37:14.827Z,6.20
2017-11-18T22:39:44.246Z,6.60
2017-11-18T22:42:12.589Z,5.67
2017-11-18T22:44:41.737Z,6.10
2017-11-18T22:47:11.228Z,4.17
2017-11-18T22:49:40.612Z,4.30
2017-11-18T22:52:10.010Z,4.87
2017-11-18T22:54:39.052Z,4.30
2017-11-18T22:57:08.607Z,4.67
2017-11-18T22:59:37.986Z,4.07
2017-11-18T23:02:07.358Z,3.33
2017-11-18T23:04:36.735Z,4.40
2017-11-18T23:07:06.125Z,4.83
2017-11-18T23:09:35.498Z,4.53
2017-11-18T23:12:04.865Z,3.70
2017-11-18T23:14:34.299Z,4.43
2017-11-18T23:17:03.687Z,4.23
2017-11-18T23:19:33.069Z,3.90
2017-11-18T23:22:02.453Z,3.90
2017-11-18T23:24:31.865Z,4.00
2017-11-18T23:27:01.234Z,3.20
2017-11-18T23:29:30.624Z,3.93
2017-11-18T23:31:59.990Z,3.03
2017-11-18T23:34:29.362Z,3.00
2017-11-18T23:36:58.751Z,2.57
2017-11-18T23:39:28.122Z,2.80
2017-11-18T23:41:57.577Z,2.20
2017-11-18T23:44:26.972Z,2.20
2017-11-18T23:46:56.530Z,2.23
2017-11-18T23:49:25.915Z,2.87
2017-11-18T23:51:56.146Z,2.30
2017-11-18T23:54:25.781Z,3.20
2017-11-18T23:56:55.188Z,2.50
2017-11-18T23:59:24.558Z,2.10
